sensor_id;sensor_type;location;lat;lon;timestamp;pressure;altitude;pressure_sealevel;temperature;humidity
26823;BME280;14852;51.910;8.878;2022-12-20T00:00:17;99769.06;;;12.56;61.58
26823;BME280;14852;51.910;8.878;2022-12-20T00:02:43;99760.47;;;12.54;61.77
26823;BME280;14852;51.910;8.878;2022-12-20T00:05:09;99763.19;;;12.53;61.75
26823;BME280;14852;51.910;8.878;2022-12-20T00:07:35;99769.22;;;12.53;62.03
26823;BME280;14852;51.910;8.878;2022-12-20T00:10:01;99760.41;;;12.56;61.82
26823;BME280;14852;51.910;8.878;2022-12-20T00:12:27;99759.47;;;12.57;62.07
26823;BME280;14852;51.910;8.878;2022-12-20T00:14:53;99762.69;;;12.60;61.68
26823;BME280;14852;51.910;8.878;2022-12-20T00:17:18;99767.81;;;12.62;61.76
26823;BME280;14852;51.910;8.878;2022-12-20T00:19:44;99772.19;;;12.61;62.13
26823;BME280;14852;51.910;8.878;2022-12-20T00:22:10;99763.44;;;12.62;61.71
26823;BME280;14852;51.910;8.878;2022-12-20T00:24:36;99758.25;;;12.62;61.82
26823;BME280;14852;51.910;8.878;2022-12-20T00:27:02;99765.22;;;12.62;61.68
26823;BME280;14852;51.910;8.878;2022-12-20T00:29:28;99762.63;;;12.62;61.67
26823;BME280;14852;51.910;8.878;2022-12-20T00:31:55;99765.13;;;12.63;61.99
26823;BME280;14852;51.910;8.878;2022-12-20T00:34:20;99767.00;;;12.61;62.09
26823;BME280;14852;51.910;8.878;2022-12-20T00:36:46;99770.44;;;12.62;61.92
26823;BME280;14852;51.910;8.878;2022-12-20T00:39:12;99764.38;;;12.61;61.74
26823;BME280;14852;51.910;8.878;2022-12-20T00:41:38;99765.22;;;12.62;61.76
26823;BME280;14852;51.910;8.878;2022-12-20T00:44:04;99762.44;;;12.65;61.63
26823;BME280;14852;51.910;8.878;2022-12-20T00:46:30;99752.00;;;12.65;61.92
26823;BME280;14852;51.910;8.878;2022-12-20T00:48:57;99756.28;;;12.66;61.82
26823;BME280;14852;51.910;8.878;2022-12-20T00:51:27;99752.00;;;12.65;61.91
26823;BME280;14852;51.910;8.878;2022-12-20T00:53:53;99745.28;;;12.61;62.10
26823;BME280;14852;51.910;8.878;2022-12-20T00:56:20;99739.47;;;12.57;61.90
26823;BME280;14852;51.910;8.878;2022-12-20T00:58:46;99737.03;;;12.54;62.07
26823;BME280;14852;51.910;8.878;2022-12-20T01:01:28;99736.84;;;12.57;61.88
26823;BME280;14852;51.910;8.878;2022-12-20T01:03:56;99729.13;;;12.56;62.34
26823;BME280;14852;51.910;8.878;2022-12-20T01:06:23;99723.06;;;12.55;62.21
26823;BME280;14852;51.910;8.878;2022-12-20T01:08:51;99729.75;;;12.59;61.83
26823;BME280;14852;51.910;8.878;2022-12-20T01:11:27;99722.69;;;12.61;62.14
26823;BME280;14852;51.910;8.878;2022-12-20T01:13:55;99730.31;;;12.64;62.13
26823;BME280;14852;51.910;8.878;2022-12-20T01:16:31;99735.34;;;12.67;61.87
26823;BME280;14852;51.910;8.878;2022-12-20T01:18:59;99734.31;;;12.70;62.12
26823;BME280;14852;51.910;8.878;2022-12-20T01:21:26;99730.69;;;12.73;62.39
26823;BME280;14852;51.910;8.878;2022-12-20T01:23:53;99723.59;;;12.75;61.92
26823;BME280;14852;51.910;8.878;2022-12-20T01:26:22;99709.53;;;12.77;62.20
26823;BME280;14852;51.910;8.878;2022-12-20T01:28:52;99710.16;;;12.81;61.82
26823;BME280;14852;51.910;8.878;2022-12-20T01:31:19;99715.28;;;12.82;62.46
26823;BME280;14852;51.910;8.878;2022-12-20T01:33:47;99697.78;;;12.84;62.02
26823;BME280;14852;51.910;8.878;2022-12-20T01:36:17;99707.38;;;12.84;62.22
26823;BME280;14852;51.910;8.878;2022-12-20T01:38:44;99718.66;;;12.84;62.17
26823;BME280;14852;51.910;8.878;2022-12-20T01:41:18;99698.63;;;12.85;62.01
26823;BME280;14852;51.910;8.878;2022-12-20T01:43:59;99695.09;;;12.86;62.27
26823;BME280;14852;51.910;8.878;2022-12-20T01:46:29;99703.47;;;12.91;61.90
26823;BME280;14852;51.910;8.878;2022-12-20T01:51:43;99719.13;;;12.91;61.81
26823;BME280;14852;51.910;8.878;2022-12-20T01:54:20;99712.97;;;12.92;61.97
26823;BME280;14852;51.910;8.878;2022-12-20T01:56:59;99703.25;;;12.94;61.77
26823;BME280;14852;51.910;8.878;2022-12-20T01:59:27;99711.00;;;12.95;62.09
26823;BME280;14852;51.910;8.878;2022-12-20T02:01:57;99714.34;;;12.97;62.14
26823;BME280;14852;51.910;8.878;2022-12-20T02:04:23;99725.63;;;12.98;62.12
26823;BME280;14852;51.910;8.878;2022-12-20T02:06:49;99721.16;;;13.00;61.85
26823;BME280;14852;51.910;8.878;2022-12-20T02:09:15;99722.00;;;13.00;62.14
26823;BME280;14852;51.910;8.878;2022-12-20T02:18:07;99713.38;;;13.13;61.98
26823;BME280;14852;51.910;8.878;2022-12-20T02:24:24;99710.59;;;13.16;61.69
26823;BME280;14852;51.910;8.878;2022-12-20T02:30:13;99681.16;;;13.14;61.54
26823;BME280;14852;51.910;8.878;2022-12-20T02:33:02;99670.66;;;13.15;61.66
26823;BME280;14852;51.910;8.878;2022-12-20T02:35:34;99681.16;;;13.14;61.66
26823;BME280;14852;51.910;8.878;2022-12-20T02:38:28;99686.31;;;13.15;61.70
26823;BME280;14852;51.910;8.878;2022-12-20T02:41:19;99695.06;;;13.14;61.86
26823;BME280;14852;51.910;8.878;2022-12-20T02:43:53;99696.06;;;13.12;61.44
26823;BME280;14852;51.910;8.878;2022-12-20T02:46:41;99688.50;;;13.07;61.75
26823;BME280;14852;51.910;8.878;2022-12-20T02:49:15;99677.25;;;13.06;61.78
26823;BME280;14852;51.910;8.878;2022-12-20T02:51:46;99681.50;;;12.81;61.49
26823;BME280;14852;51.910;8.878;2022-12-20T02:54:14;99690.03;;;12.42;61.32
26823;BME280;14852;51.910;8.878;2022-12-20T02:57:04;99678.00;;;11.96;61.34
26823;BME280;14852;51.910;8.878;2022-12-20T03:00:10;99679.72;;;11.52;61.75
26823;BME280;14852;51.910;8.878;2022-12-20T03:02:38;99682.72;;;11.14;62.10
26823;BME280;14852;51.910;8.878;2022-12-20T03:05:25;99672.41;;;10.81;62.25
26823;BME280;14852;51.910;8.878;2022-12-20T03:07:52;99672.97;;;10.55;61.99
26823;BME280;14852;51.910;8.878;2022-12-20T03:10:21;99669.09;;;10.31;62.21
26823;BME280;14852;51.910;8.878;2022-12-20T03:12:47;99679.56;;;10.12;62.31
26823;BME280;14852;51.910;8.878;2022-12-20T03:15:13;99654.63;;;9.92;62.12
26823;BME280;14852;51.910;8.878;2022-12-20T03:17:39;99656.25;;;9.77;61.90
26823;BME280;14852;51.910;8.878;2022-12-20T03:20:06;99654.34;;;9.64;62.34
26823;BME280;14852;51.910;8.878;2022-12-20T03:22:33;99666.31;;;9.49;62.03
26823;BME280;14852;51.910;8.878;2022-12-20T03:25:00;99661.59;;;9.40;62.12
26823;BME280;14852;51.910;8.878;2022-12-20T03:27:27;99669.69;;;9.34;62.43
26823;BME280;14852;51.910;8.878;2022-12-20T03:29:54;99673.47;;;9.27;62.32
26823;BME280;14852;51.910;8.878;2022-12-20T03:32:20;99672.88;;;9.22;62.08
26823;BME280;14852;51.910;8.878;2022-12-20T03:34:46;99668.94;;;9.13;62.13
26823;BME280;14852;51.910;8.878;2022-12-20T03:37:14;99664.91;;;9.07;62.39
26823;BME280;14852;51.910;8.878;2022-12-20T03:39:41;99668.91;;;8.96;62.04
26823;BME280;14852;51.910;8.878;2022-12-20T03:42:07;99677.06;;;8.88;62.46
26823;BME280;14852;51.910;8.878;2022-12-20T03:44:33;99670.47;;;8.81;62.36
26823;BME280;14852;51.910;8.878;2022-12-20T03:46:59;99680.34;;;8.73;62.30
26823;BME280;14852;51.910;8.878;2022-12-20T03:49:25;99686.69;;;8.66;62.43
26823;BME280;14852;51.910;8.878;2022-12-20T03:51:52;99685.19;;;8.62;62.51
26823;BME280;14852;51.910;8.878;2022-12-20T03:54:18;99675.88;;;8.58;62.59
26823;BME280;14852;51.910;8.878;2022-12-20T03:57:11;99684.53;;;8.57;62.31
26823;BME280;14852;51.910;8.878;2022-12-20T03:59:38;99679.66;;;8.51;62.45
26823;BME280;14852;51.910;8.878;2022-12-20T04:02:06;99666.91;;;8.46;62.24
26823;BME280;14852;51.910;8.878;2022-12-20T04:04:35;99684.25;;;8.44;62.58
26823;BME280;14852;51.910;8.878;2022-12-20T04:07:01;99698.19;;;8.42;62.75
26823;BME280;14852;51.910;8.878;2022-12-20T04:09:27;99690.56;;;8.39;62.70
26823;BME280;14852;51.910;8.878;2022-12-20T04:12:00;99698.38;;;8.37;62.91
26823;BME280;14852;51.910;8.878;2022-12-20T04:14:27;99707.78;;;8.40;62.70
26823;BME280;14852;51.910;8.878;2022-12-20T04:16:52;99698.31;;;8.39;62.79
26823;BME280;14852;51.910;8.878;2022-12-20T04:19:22;99700.00;;;8.40;62.51
26823;BME280;14852;51.910;8.878;2022-12-20T04:21:48;99700.78;;;8.42;62.78
26823;BME280;14852;51.910;8.878;2022-12-20T04:24:16;99702.38;;;8.44;62.64
26823;BME280;14852;51.910;8.878;2022-12-20T04:26:45;99698.88;;;8.45;62.45
26823;BME280;14852;51.910;8.878;2022-12-20T04:29:12;99691.88;;;8.47;62.52
26823;BME280;14852;51.910;8.878;2022-12-20T04:31:40;99692.72;;;8.48;62.82
26823;BME280;14852;51.910;8.878;2022-12-20T04:34:07;99691.75;;;8.50;62.83
26823;BME280;14852;51.910;8.878;2022-12-20T04:36:33;99698.63;;;8.51;62.91
26823;BME280;14852;51.910;8.878;2022-12-20T04:39:02;99689.09;;;8.52;63.02
26823;BME280;14852;51.910;8.878;2022-12-20T04:41:33;99693.38;;;8.53;63.24
26823;BME280;14852;51.910;8.878;2022-12-20T04:44:06;99693.38;;;8.53;62.82
26823;BME280;14852;51.910;8.878;2022-12-20T04:46:35;99690.84;;;8.51;62.95
26823;BME280;14852;51.910;8.878;2022-12-20T04:49:02;99681.41;;;8.50;63.15
26823;BME280;14852;51.910;8.878;2022-12-20T04:51:33;99682.25;;;8.51;63.21
26823;BME280;14852;51.910;8.878;2022-12-20T04:53:58;99675.44;;;8.48;63.25
26823;BME280;14852;51.910;8.878;2022-12-20T04:56:33;99670.41;;;8.45;63.37
26823;BME280;14852;51.910;8.878;2022-12-20T04:59:05;99684.25;;;8.44;63.44
26823;BME280;14852;51.910;8.878;2022-12-20T05:01:32;99663.69;;;8.41;63.41
26823;BME280;14852;51.910;8.878;2022-12-20T05:04:00;99661.84;;;8.43;63.85
26823;BME280;14852;51.910;8.878;2022-12-20T05:06:30;99664.53;;;8.42;63.57
26823;BME280;14852;51.910;8.878;2022-12-20T05:08:57;99662.06;;;8.39;63.60
26823;BME280;14852;51.910;8.878;2022-12-20T05:11:23;99663.88;;;8.37;63.78
26823;BME280;14852;51.910;8.878;2022-12-20T05:13:50;99662.97;;;8.38;63.88
26823;BME280;14852;51.910;8.878;2022-12-20T05:16:19;99668.94;;;8.40;63.86
26823;BME280;14852;51.910;8.878;2022-12-20T05:18:45;99675.88;;;8.39;63.78
26823;BME280;14852;51.910;8.878;2022-12-20T05:21:11;99675.78;;;8.41;63.80
26823;BME280;14852;51.910;8.878;2022-12-20T05:23:55;99684.31;;;8.43;64.02
26823;BME280;14852;51.910;8.878;2022-12-20T05:26:54;99679.97;;;8.43;63.78
26823;BME280;14852;51.910;8.878;2022-12-20T05:29:20;99677.25;;;8.46;64.12
26823;BME280;14852;51.910;8.878;2022-12-20T05:31:46;99666.84;;;8.48;63.73
26823;BME280;14852;51.910;8.878;2022-12-20T05:34:13;99666.78;;;8.49;63.75
26823;BME280;14852;51.910;8.878;2022-12-20T05:36:42;99660.63;;;8.52;63.82
26823;BME280;14852;51.910;8.878;2022-12-20T05:39:08;99653.69;;;8.52;63.89
26823;BME280;14852;51.910;8.878;2022-12-20T05:41:37;99647.59;;;8.53;63.93
26823;BME280;14852;51.910;8.878;2022-12-20T05:44:06;99651.00;;;8.54;64.19
26823;BME280;14852;51.910;8.878;2022-12-20T05:46:34;99659.72;;;8.53;64.17
26823;BME280;14852;51.910;8.878;2022-12-20T05:49:04;99665.78;;;8.52;64.37
26823;BME280;14852;51.910;8.878;2022-12-20T05:51:31;99657.81;;;8.56;64.41
26823;BME280;14852;51.910;8.878;2022-12-20T05:54:01;99667.59;;;8.68;64.37
26823;BME280;14852;51.910;8.878;2022-12-20T05:56:44;99670.13;;;8.70;64.01
26823;BME280;14852;51.910;8.878;2022-12-20T05:59:11;99659.81;;;8.68;64.51
26823;BME280;14852;51.910;8.878;2022-12-20T06:01:37;99657.94;;;8.72;64.50
26823;BME280;14852;51.910;8.878;2022-12-20T06:04:03;99651.56;;;8.79;64.43
26823;BME280;14852;51.910;8.878;2022-12-20T06:06:29;99658.09;;;8.88;64.48
26823;BME280;14852;51.910;8.878;2022-12-20T06:08:56;99650.47;;;9.02;64.69
26823;BME280;14852;51.910;8.878;2022-12-20T06:11:34;99633.50;;;9.14;64.08
26823;BME280;14852;51.910;8.878;2022-12-20T06:14:04;99629.47;;;9.25;64.34
26823;BME280;14852;51.910;8.878;2022-12-20T06:16:33;99626.81;;;9.44;64.59
26823;BME280;14852;51.910;8.878;2022-12-20T06:18:59;99632.75;;;9.63;64.82
26823;BME280;14852;51.910;8.878;2022-12-20T06:21:25;99634.03;;;9.72;64.78
26823;BME280;14852;51.910;8.878;2022-12-20T06:23:53;99628.47;;;9.79;64.92
26823;BME280;14852;51.910;8.878;2022-12-20T06:26:20;99630.53;;;9.90;64.55
26823;BME280;14852;51.910;8.878;2022-12-20T06:28:49;99631.81;;;9.99;64.98
26823;BME280;14852;51.910;8.878;2022-12-20T06:31:33;99625.22;;;10.09;64.72
26823;BME280;14852;51.910;8.878;2022-12-20T06:33:59;99620.63;;;10.14;65.03
26823;BME280;14852;51.910;8.878;2022-12-20T06:36:30;99628.09;;;10.20;64.94
26823;BME280;14852;51.910;8.878;2022-12-20T06:38:57;99627.88;;;10.25;64.99
26823;BME280;14852;51.910;8.878;2022-12-20T06:41:23;99629.28;;;10.30;65.06
26823;BME280;14852;51.910;8.878;2022-12-20T06:44:08;99621.28;;;10.35;65.04
26823;BME280;14852;51.910;8.878;2022-12-20T06:46:34;99620.09;;;10.25;65.04
26823;BME280;14852;51.910;8.878;2022-12-20T06:49:00;99622.16;;;10.18;65.02
26823;BME280;14852;51.910;8.878;2022-12-20T06:51:26;99628.56;;;10.11;64.92
26823;BME280;14852;51.910;8.878;2022-12-20T06:53:53;99637.56;;;10.04;65.03
26823;BME280;14852;51.910;8.878;2022-12-20T06:56:20;99635.09;;;10.02;65.43
26823;BME280;14852;51.910;8.878;2022-12-20T06:58:46;99625.44;;;10.04;65.43
26823;BME280;14852;51.910;8.878;2022-12-20T07:01:12;99621.69;;;10.10;65.23
26823;BME280;14852;51.910;8.878;2022-12-20T07:03:38;99610.25;;;10.14;65.27
26823;BME280;14852;51.910;8.878;2022-12-20T07:06:04;99613.50;;;10.17;65.36
26823;BME280;14852;51.910;8.878;2022-12-20T07:08:30;99615.47;;;10.30;65.61
26823;BME280;14852;51.910;8.878;2022-12-20T07:11:03;99618.94;;;10.46;65.16
26823;BME280;14852;51.910;8.878;2022-12-20T07:13:30;99616.44;;;10.60;65.51
26823;BME280;14852;51.910;8.878;2022-12-20T07:16:00;99612.22;;;10.73;64.96
26823;BME280;14852;51.910;8.878;2022-12-20T07:18:27;99607.44;;;10.81;65.25
26823;BME280;14852;51.910;8.878;2022-12-20T07:20:53;99614.72;;;10.91;65.22
26823;BME280;14852;51.910;8.878;2022-12-20T07:23:19;99618.25;;;10.89;65.08
26823;BME280;14852;51.910;8.878;2022-12-20T07:25:55;99627.22;;;10.68;64.82
26823;BME280;14852;51.910;8.878;2022-12-20T07:28:23;99618.25;;;10.42;65.13
26823;BME280;14852;51.910;8.878;2022-12-20T07:30:49;99621.00;;;10.24;64.98
26823;BME280;14852;51.910;8.878;2022-12-20T07:33:15;99623.88;;;10.02;65.10
26823;BME280;14852;51.910;8.878;2022-12-20T07:35:41;99629.06;;;9.85;64.92
26823;BME280;14852;51.910;8.878;2022-12-20T07:38:08;99624.56;;;9.71;65.04
26823;BME280;14852;51.910;8.878;2022-12-20T07:40:34;99621.69;;;9.60;64.94
26823;BME280;14852;51.910;8.878;2022-12-20T07:43:00;99620.41;;;9.51;64.93
26823;BME280;14852;51.910;8.878;2022-12-20T07:45:25;99614.91;;;9.40;65.25
26823;BME280;14852;51.910;8.878;2022-12-20T07:47:51;99611.81;;;9.33;65.09
26823;BME280;14852;51.910;8.878;2022-12-20T07:50:17;99606.97;;;9.26;65.13
26823;BME280;14852;51.910;8.878;2022-12-20T07:52:45;99612.63;;;9.17;65.33
26823;BME280;14852;51.910;8.878;2022-12-20T07:55:12;99612.94;;;9.11;65.63
26823;BME280;14852;51.910;8.878;2022-12-20T07:57:53;99601.03;;;9.06;65.35
26823;BME280;14852;51.910;8.878;2022-12-20T08:00:20;99609.00;;;9.02;65.53
26823;BME280;14852;51.910;8.878;2022-12-20T08:03:12;99614.44;;;8.97;65.56
26823;BME280;14852;51.910;8.878;2022-12-20T08:05:42;99615.56;;;8.92;65.56
26823;BME280;14852;51.910;8.878;2022-12-20T08:08:10;99624.47;;;8.86;65.60
26823;BME280;14852;51.910;8.878;2022-12-20T08:10:36;99623.75;;;8.83;65.58
26823;BME280;14852;51.910;8.878;2022-12-20T08:13:04;99617.75;;;8.82;65.42
26823;BME280;14852;51.910;8.878;2022-12-20T08:15:30;99616.97;;;8.80;65.44
26823;BME280;14852;51.910;8.878;2022-12-20T08:17:58;99610.94;;;8.80;65.44
26823;BME280;14852;51.910;8.878;2022-12-20T08:20:23;99615.28;;;8.79;65.55
26823;BME280;14852;51.910;8.878;2022-12-20T08:22:49;99614.53;;;8.77;65.64
26823;BME280;14852;51.910;8.878;2022-12-20T08:25:15;99615.53;;;8.75;65.20
26823;BME280;14852;51.910;8.878;2022-12-20T08:27:41;99611.19;;;8.75;65.24
26823;BME280;14852;51.910;8.878;2022-12-20T08:30:08;99602.56;;;8.75;65.30
26823;BME280;14852;51.910;8.878;2022-12-20T08:32:36;99581.84;;;8.75;65.26
26823;BME280;14852;51.910;8.878;2022-12-20T08:35:03;99596.56;;;8.74;65.02
26823;BME280;14852;51.910;8.878;2022-12-20T08:37:29;99603.56;;;8.72;65.47
26823;BME280;14852;51.910;8.878;2022-12-20T08:39:55;99595.84;;;8.70;65.51
26823;BME280;14852;51.910;8.878;2022-12-20T08:42:21;99601.03;;;8.70;65.45
26823;BME280;14852;51.910;8.878;2022-12-20T08:44:46;99593.31;;;8.69;65.69
26823;BME280;14852;51.910;8.878;2022-12-20T08:47:12;99584.72;;;8.68;65.19
26823;BME280;14852;51.910;8.878;2022-12-20T08:49:38;99574.22;;;8.71;65.51
26823;BME280;14852;51.910;8.878;2022-12-20T08:52:04;99572.41;;;8.74;65.38
26823;BME280;14852;51.910;8.878;2022-12-20T08:54:30;99568.81;;;8.76;65.54
26823;BME280;14852;51.910;8.878;2022-12-20T08:56:56;99563.47;;;8.79;65.25
26823;BME280;14852;51.910;8.878;2022-12-20T08:59:21;99565.16;;;8.80;65.36
26823;BME280;14852;51.910;8.878;2022-12-20T09:01:47;99564.94;;;8.85;65.62
26823;BME280;14852;51.910;8.878;2022-12-20T09:04:13;99552.69;;;8.88;65.61
26823;BME280;14852;51.910;8.878;2022-12-20T09:06:39;99562.75;;;8.94;65.52
26823;BME280;14852;51.910;8.878;2022-12-20T09:09:06;99565.03;;;9.00;65.39
26823;BME280;14852;51.910;8.878;2022-12-20T09:11:32;99562.00;;;9.10;65.19
26823;BME280;14852;51.910;8.878;2022-12-20T09:13:58;99559.94;;;9.16;65.42
26823;BME280;14852;51.910;8.878;2022-12-20T09:16:28;99567.25;;;9.25;65.14
26823;BME280;14852;51.910;8.878;2022-12-20T09:18:57;99558.09;;;9.35;64.97
26823;BME280;14852;51.910;8.878;2022-12-20T09:21:24;99560.69;;;9.53;65.33
26823;BME280;14852;51.910;8.878;2022-12-20T09:23:52;99554.16;;;9.78;65.41
26823;BME280;14852;51.910;8.878;2022-12-20T09:26:19;99551.25;;;10.16;65.24
26823;BME280;14852;51.910;8.878;2022-12-20T09:28:46;99551.03;;;10.52;64.60
26823;BME280;14852;51.910;8.878;2022-12-20T09:31:21;99532.38;;;10.91;64.53
26823;BME280;14852;51.910;8.878;2022-12-20T09:33:48;99539.81;;;11.27;64.23
26823;BME280;14852;51.910;8.878;2022-12-20T09:36:19;99535.31;;;11.59;63.93
26823;BME280;14852;51.910;8.878;2022-12-20T09:38:46;99535.25;;;11.89;63.91
26823;BME280;14852;51.910;8.878;2022-12-20T09:41:27;99542.38;;;12.14;63.78
26823;BME280;14852;51.910;8.878;2022-12-20T09:43:54;99530.09;;;12.30;63.59
26823;BME280;14852;51.910;8.878;2022-12-20T09:46:22;99520.56;;;12.43;63.58
26823;BME280;14852;51.910;8.878;2022-12-20T09:48:49;99516.25;;;12.56;63.39
26823;BME280;14852;51.910;8.878;2022-12-20T10:00:19;99507.09;;;13.03;62.50
26823;BME280;14852;51.910;8.878;2022-12-20T10:02:46;99509.19;;;13.11;62.52
26823;BME280;14852;51.910;8.878;2022-12-20T10:05:24;99501.91;;;13.16;62.20
26823;BME280;14852;51.910;8.878;2022-12-20T10:08:15;99504.94;;;13.22;62.39
26823;BME280;14852;51.910;8.878;2022-12-20T10:11:08;99505.34;;;13.29;62.31
26823;BME280;14852;51.910;8.878;2022-12-20T10:16:41;99514.22;;;13.39;61.55
26823;BME280;14852;51.910;8.878;2022-12-20T10:22:25;99505.69;;;13.50;61.56
26823;BME280;14852;51.910;8.878;2022-12-20T10:27:43;99506.94;;;13.31;61.28
26823;BME280;14852;51.910;8.878;2022-12-20T10:30:21;99499.53;;;13.25;61.26
26823;BME280;14852;51.910;8.878;2022-12-20T10:32:51;99499.09;;;13.19;61.00
26823;BME280;14852;51.910;8.878;2022-12-20T10:35:38;99510.38;;;13.19;61.66
26823;BME280;14852;51.910;8.878;2022-12-20T10:38:08;99501.78;;;13.17;61.34
26823;BME280;14852;51.910;8.878;2022-12-20T10:40:47;99509.31;;;13.22;61.33
26823;BME280;14852;51.910;8.878;2022-12-20T10:43:20;99485.31;;;13.29;60.90
26823;BME280;14852;51.910;8.878;2022-12-20T10:46:07;99486.25;;;13.41;60.86
26823;BME280;14852;51.910;8.878;2022-12-20T10:48:37;99478.03;;;13.47;60.80
26823;BME280;14852;51.910;8.878;2022-12-20T10:51:19;99471.22;;;13.57;60.68
26823;BME280;14852;51.910;8.878;2022-12-20T10:54:04;99467.25;;;13.64;60.53
26823;BME280;14852;51.910;8.878;2022-12-20T10:56:58;99465.16;;;13.69;59.90
26823;BME280;14852;51.910;8.878;2022-12-20T11:07:38;99462.09;;;13.75;59.46
26823;BME280;14852;51.910;8.878;2022-12-20T11:10:27;99462.72;;;13.79;59.39
26823;BME280;14852;51.910;8.878;2022-12-20T11:13:01;99460.50;;;13.86;59.71
26823;BME280;14852;51.910;8.878;2022-12-20T11:15:31;99450.78;;;13.88;59.14
26823;BME280;14852;51.910;8.878;2022-12-20T11:18:13;99467.94;;;13.92;59.45
26823;BME280;14852;51.910;8.878;2022-12-20T11:24:15;99456.34;;;13.96;59.80
26823;BME280;14852;51.910;8.878;2022-12-20T11:30:07;99435.31;;;13.97;59.43
26823;BME280;14852;51.910;8.878;2022-12-20T11:35:58;99427.44;;;14.10;58.75
26823;BME280;14852;51.910;8.878;2022-12-20T11:44:08;99419.06;;;14.18;58.66
26823;BME280;14852;51.910;8.878;2022-12-20T11:47:17;99421.78;;;14.16;58.83
26823;BME280;14852;51.910;8.878;2022-12-20T11:55:38;99396.22;;;14.20;58.48
26823;BME280;14852;51.910;8.878;2022-12-20T11:58:23;99397.47;;;14.27;58.28
26823;BME280;14852;51.910;8.878;2022-12-20T12:01:03;99393.44;;;14.34;58.02
26823;BME280;14852;51.910;8.878;2022-12-20T12:03:36;99388.94;;;14.36;57.91
26823;BME280;14852;51.910;8.878;2022-12-20T12:06:20;99384.97;;;14.43;57.99
26823;BME280;14852;51.910;8.878;2022-12-20T12:11:31;99380.16;;;14.37;58.04
26823;BME280;14852;51.910;8.878;2022-12-20T12:13:59;99375.22;;;14.21;57.98
26823;BME280;14852;51.910;8.878;2022-12-20T12:16:27;99373.13;;;14.02;58.60
26823;BME280;14852;51.910;8.878;2022-12-20T12:18:58;99377.59;;;13.76;58.77
26823;BME280;14852;51.910;8.878;2022-12-20T12:21:32;99355.44;;;13.58;58.73
26823;BME280;14852;51.910;8.878;2022-12-20T12:24:18;99357.56;;;13.40;58.93
26823;BME280;14852;51.910;8.878;2022-12-20T12:26:46;99357.69;;;13.26;59.23
26823;BME280;14852;51.910;8.878;2022-12-20T12:29:14;99350.78;;;13.13;58.88
26823;BME280;14852;51.910;8.878;2022-12-20T12:32:05;99353.06;;;13.04;58.85
26823;BME280;14852;51.910;8.878;2022-12-20T12:41:13;99360.19;;;12.77;59.27
26823;BME280;14852;51.910;8.878;2022-12-20T12:43:53;99356.44;;;12.68;59.49
26823;BME280;14852;51.910;8.878;2022-12-20T12:46:26;99356.75;;;12.64;59.45
26823;BME280;14852;51.910;8.878;2022-12-20T12:49:14;99359.13;;;12.54;59.53
26823;BME280;14852;51.910;8.878;2022-12-20T12:51:52;99353.81;;;12.43;59.66
26823;BME280;14852;51.910;8.878;2022-12-20T12:54:40;99344.94;;;12.33;59.79
26823;BME280;14852;51.910;8.878;2022-12-20T12:57:17;99346.47;;;12.23;59.87
26823;BME280;14852;51.910;8.878;2022-12-20T12:59:45;99346.03;;;12.16;59.96
26823;BME280;14852;51.910;8.878;2022-12-20T13:13:20;99343.69;;;12.12;59.92
26823;BME280;14852;51.910;8.878;2022-12-20T13:15:49;99347.47;;;12.08;60.06
26823;BME280;14852;51.910;8.878;2022-12-20T13:20:41;99335.28;;;12.08;60.02
26823;BME280;14852;51.910;8.878;2022-12-20T13:25:36;99326.88;;;12.30;59.73
26823;BME280;14852;51.910;8.878;2022-12-20T13:33:45;99322.53;;;12.81;59.36
26823;BME280;14852;51.910;8.878;2022-12-20T13:39:28;99337.84;;;13.11;59.18
26823;BME280;14852;51.910;8.878;2022-12-20T13:42:29;99334.44;;;13.23;59.13
26823;BME280;14852;51.910;8.878;2022-12-20T13:45:02;99329.28;;;13.34;59.40
26823;BME280;14852;51.910;8.878;2022-12-20T13:47:44;99333.66;;;13.47;58.94
26823;BME280;14852;51.910;8.878;2022-12-20T13:50:49;99333.72;;;13.58;58.97
26823;BME280;14852;51.910;8.878;2022-12-20T13:53:23;99338.38;;;13.65;59.05
26823;BME280;14852;51.910;8.878;2022-12-20T13:55:50;99331.28;;;13.67;58.83
26823;BME280;14852;51.910;8.878;2022-12-20T13:58:29;99334.16;;;13.75;58.94
26823;BME280;14852;51.910;8.878;2022-12-20T14:01:08;99339.06;;;13.80;58.86
26823;BME280;14852;51.910;8.878;2022-12-20T14:03:41;99334.94;;;13.89;58.33
26823;BME280;14852;51.910;8.878;2022-12-20T14:06:12;99337.22;;;13.93;58.55
26823;BME280;14852;51.910;8.878;2022-12-20T14:08:46;99334.38;;;13.96;58.12
26823;BME280;14852;51.910;8.878;2022-12-20T14:11:21;99337.50;;;14.01;58.55
26823;BME280;14852;51.910;8.878;2022-12-20T14:14:01;99337.50;;;14.01;58.40
26823;BME280;14852;51.910;8.878;2022-12-20T14:16:30;99337.38;;;14.03;58.48
26823;BME280;14852;51.910;8.878;2022-12-20T14:19:04;99338.22;;;14.03;58.57
26823;BME280;14852;51.910;8.878;2022-12-20T14:21:32;99326.94;;;14.03;58.58
26823;BME280;14852;51.910;8.878;2022-12-20T14:24:00;99336.66;;;14.01;58.17
26823;BME280;14852;51.910;8.878;2022-12-20T14:26:31;99333.31;;;13.99;58.23
26823;BME280;14852;51.910;8.878;2022-12-20T14:29:00;99337.59;;;14.00;58.10
26823;BME280;14852;51.910;8.878;2022-12-20T14:36:45;99322.56;;;14.03;58.31
26823;BME280;14852;51.910;8.878;2022-12-20T14:39:26;99322.44;;;14.05;58.66
26823;BME280;14852;51.910;8.878;2022-12-20T14:44:31;99319.22;;;14.01;58.27
26823;BME280;14852;51.910;8.878;2022-12-20T14:47:01;99321.00;;;14.01;58.91
26823;BME280;14852;51.910;8.878;2022-12-20T14:49:33;99311.47;;;14.00;58.67
26823;BME280;14852;51.910;8.878;2022-12-20T14:57:54;99299.78;;;14.05;58.80
26823;BME280;14852;51.910;8.878;2022-12-20T15:00:33;99312.09;;;14.03;59.10
26823;BME280;14852;51.910;8.878;2022-12-20T15:03:15;99309.50;;;14.03;59.09
26823;BME280;14852;51.910;8.878;2022-12-20T15:05:45;99308.44;;;14.06;58.70
26823;BME280;14852;51.910;8.878;2022-12-20T15:08:27;99314.00;;;14.01;58.81
26823;BME280;14852;51.910;8.878;2022-12-20T15:13:41;99298.78;;;13.95;59.06
26823;BME280;14852;51.910;8.878;2022-12-20T15:16:16;99316.22;;;13.95;59.49
26823;BME280;14852;51.910;8.878;2022-12-20T15:18:48;99314.66;;;13.92;59.56